sensor_id;sensor_type;location;lat;lon;timestamp;pressure;altitude;pressure_sealevel;temperature;humidity
5298;BME280;14738;42.668;23.250;2024-02-21T00:02:04;48517.34;;;-141.90;65.28
5298;BME280;14738;42.668;23.250;2024-02-21T00:04:29;48545.16;;;-141.90;65.13
5298;BME280;14738;42.668;23.250;2024-02-21T00:06:55;48513.38;;;-141.90;65.00
5298;BME280;14738;42.668;23.250;2024-02-21T00:09:20;48519.34;;;-141.90;65.21
5298;BME280;14738;42.668;23.250;2024-02-21T00:11:45;48525.31;;;-141.90;64.92
5298;BME280;14738;42.668;23.250;2024-02-21T00:14:11;48497.50;;;-141.90;64.87
5298;BME280;14738;42.668;23.250;2024-02-21T00:16:36;48545.16;;;-141.90;64.99
5298;BME280;14738;42.668;23.250;2024-02-21T00:19:02;48549.13;;;-141.90;65.18
5298;BME280;14738;42.668;23.250;2024-02-21T00:21:27;48513.38;;;-141.90;64.89
5298;BME280;14738;42.668;23.250;2024-02-21T00:23:52;48547.13;;;-141.90;64.67
5298;BME280;14738;42.668;23.250;2024-02-21T00:26:18;48511.41;;;-141.90;64.70
5298;BME280;14738;42.668;23.250;2024-02-21T00:28:43;48513.38;;;-141.90;64.53
5298;BME280;14738;42.668;23.250;2024-02-21T00:31:08;48519.34;;;-141.90;64.42
5298;BME280;14738;42.668;23.250;2024-02-21T00:33:34;48517.34;;;-141.90;63.98
5298;BME280;14738;42.668;23.250;2024-02-21T00:35:59;48517.34;;;-141.90;63.77
5298;BME280;14738;42.668;23.250;2024-02-21T00:38:24;48489.56;;;-141.90;64.19
5298;BME280;14738;42.668;23.250;2024-02-21T00:40:50;48527.28;;;-141.90;64.05
5298;BME280;14738;42.668;23.250;2024-02-21T00:43:15;48495.53;;;-141.90;64.52
5298;BME280;14738;42.668;23.250;2024-02-21T00:45:41;48503.47;;;-141.90;65.22
5298;BME280;14738;42.668;23.250;2024-02-21T00:48:06;48515.38;;;-141.90;65.17
5298;BME280;14738;42.668;23.250;2024-02-21T00:50:32;48495.53;;;-141.90;65.31
5298;BME280;14738;42.668;23.250;2024-02-21T00:52:57;48527.28;;;-141.90;64.99
5298;BME280;14738;42.668;23.250;2024-02-21T00:55:23;48521.34;;;-141.90;64.51
5298;BME280;14738;42.668;23.250;2024-02-21T00:57:48;48549.13;;;-141.90;64.79
5298;BME280;14738;42.668;23.250;2024-02-21T01:00:14;48541.19;;;-141.90;64.92
5298;BME280;14738;42.668;23.250;2024-02-21T01:02:39;48517.34;;;-141.90;65.26
5298;BME280;14738;42.668;23.250;2024-02-21T01:05:05;48529.28;;;-141.90;65.13
5298;BME280;14738;42.668;23.250;2024-02-21T01:07:30;48509.41;;;-141.90;65.09
5298;BME280;14738;42.668;23.250;2024-02-21T01:09:56;48521.34;;;-141.90;65.01
5298;BME280;14738;42.668;23.250;2024-02-21T01:12:21;48553.09;;;-141.90;65.11
5298;BME280;14738;42.668;23.250;2024-02-21T01:14:47;48503.47;;;-141.90;65.04
5298;BME280;14738;42.668;23.250;2024-02-21T01:17:13;48535.22;;;-141.90;64.89
5298;BME280;14738;42.668;23.250;2024-02-21T01:19:38;48549.13;;;-141.90;64.64
5298;BME280;14738;42.668;23.250;2024-02-21T01:22:04;48549.13;;;-141.90;64.98
5298;BME280;14738;42.668;23.250;2024-02-21T01:24:29;48503.47;;;-141.90;64.00
5298;BME280;14738;42.668;23.250;2024-02-21T01:26:54;48527.28;;;-141.90;64.15
5298;BME280;14738;42.668;23.250;2024-02-21T01:29:20;48529.28;;;-141.90;63.95
5298;BME280;14738;42.668;23.250;2024-02-21T01:31:45;48517.34;;;-141.90;63.77
5298;BME280;14738;42.668;23.250;2024-02-21T01:34:10;48523.31;;;-141.90;63.93
5298;BME280;14738;42.668;23.250;2024-02-21T01:36:36;48507.44;;;-141.90;64.11
5298;BME280;14738;42.668;23.250;2024-02-21T01:39:01;48517.34;;;-141.90;63.66
5298;BME280;14738;42.668;23.250;2024-02-21T01:41:29;48513.38;;;-141.90;63.71
5298;BME280;14738;42.668;23.250;2024-02-21T01:43:55;48521.34;;;-141.90;63.63
5298;BME280;14738;42.668;23.250;2024-02-21T01:46:20;48497.50;;;-141.90;63.60
5298;BME280;14738;42.668;23.250;2024-02-21T01:48:46;48527.28;;;-141.90;63.58
5298;BME280;14738;42.668;23.250;2024-02-21T01:51:11;48493.53;;;-141.90;64.03
5298;BME280;14738;42.668;23.250;2024-02-21T01:53:42;48537.22;;;-141.90;63.65
5298;BME280;14738;42.668;23.250;2024-02-21T01:56:08;48503.47;;;-141.90;62.97
5298;BME280;14738;42.668;23.250;2024-02-21T01:58:36;48529.28;;;-141.90;63.27
5298;BME280;14738;42.668;23.250;2024-02-21T02:01:02;48551.09;;;-141.90;63.14
5298;BME280;14738;42.668;23.250;2024-02-21T02:03:28;48529.28;;;-141.90;63.13
5298;BME280;14738;42.668;23.250;2024-02-21T02:05:55;48527.28;;;-141.90;62.93
5298;BME280;14738;42.668;23.250;2024-02-21T02:08:20;48509.41;;;-141.90;62.85
5298;BME280;14738;42.668;23.250;2024-02-21T02:10:49;48509.41;;;-141.90;62.68
5298;BME280;14738;42.668;23.250;2024-02-21T02:13:14;48479.63;;;-141.90;62.49
5298;BME280;14738;42.668;23.250;2024-02-21T02:15:47;48521.34;;;-141.90;62.88
5298;BME280;14738;42.668;23.250;2024-02-21T02:18:14;48495.53;;;-141.90;62.80
5298;BME280;14738;42.668;23.250;2024-02-21T02:20:40;48521.34;;;-141.90;62.36
5298;BME280;14738;42.668;23.250;2024-02-21T02:25:52;48535.22;;;-141.90;62.78
5298;BME280;14738;42.668;23.250;2024-02-21T02:28:18;48501.47;;;-141.90;62.69
5298;BME280;14738;42.668;23.250;2024-02-21T02:30:44;48493.53;;;-141.90;62.63
5298;BME280;14738;42.668;23.250;2024-02-21T02:33:10;48501.47;;;-141.90;63.02
5298;BME280;14738;42.668;23.250;2024-02-21T02:35:36;48473.69;;;-141.90;63.25
5298;BME280;14738;42.668;23.250;2024-02-21T02:38:02;48541.19;;;-141.90;63.88
5298;BME280;14738;42.668;23.250;2024-02-21T02:40:28;48545.16;;;-141.90;63.97
5298;BME280;14738;42.668;23.250;2024-02-21T02:42:53;48539.19;;;-141.90;63.77
5298;BME280;14738;42.668;23.250;2024-02-21T02:45:21;48517.34;;;-141.90;64.02
5298;BME280;14738;42.668;23.250;2024-02-21T02:47:48;48529.28;;;-141.90;63.98
5298;BME280;14738;42.668;23.250;2024-02-21T02:50:14;48541.19;;;-141.90;64.45
5298;BME280;14738;42.668;23.250;2024-02-21T02:52:39;48513.38;;;-141.90;64.09
5298;BME280;14738;42.668;23.250;2024-02-21T02:55:05;48541.19;;;-141.90;63.87
5298;BME280;14738;42.668;23.250;2024-02-21T02:57:31;48529.28;;;-141.90;63.84
5298;BME280;14738;42.668;23.250;2024-02-21T02:59:57;48539.19;;;-141.90;63.74
5298;BME280;14738;42.668;23.250;2024-02-21T03:02:22;48525.31;;;-141.90;64.26
5298;BME280;14738;42.668;23.250;2024-02-21T03:04:48;48517.34;;;-141.90;63.85
5298;BME280;14738;42.668;23.250;2024-02-21T03:07:14;48501.47;;;-141.90;63.41
5298;BME280;14738;42.668;23.250;2024-02-21T03:09:40;48535.22;;;-141.90;63.49
5298;BME280;14738;42.668;23.250;2024-02-21T03:12:06;48529.28;;;-141.90;63.60
5298;BME280;14738;42.668;23.250;2024-02-21T03:14:32;48497.50;;;-141.90;63.77
5298;BME280;14738;42.668;23.250;2024-02-21T03:17:02;48493.53;;;-141.90;63.77
5298;BME280;14738;42.668;23.250;2024-02-21T03:19:27;48533.25;;;-141.90;63.90
5298;BME280;14738;42.668;23.250;2024-02-21T03:21:53;48533.25;;;-141.90;63.65
5298;BME280;14738;42.668;23.250;2024-02-21T03:24:19;48505.44;;;-141.90;63.73
5298;BME280;14738;42.668;23.250;2024-02-21T03:26:44;48539.19;;;-141.90;63.68
5298;BME280;14738;42.668;23.250;2024-02-21T03:29:11;48517.34;;;-141.90;63.19
5298;BME280;14738;42.668;23.250;2024-02-21T03:31:37;48521.34;;;-141.90;63.53
5298;BME280;14738;42.668;23.250;2024-02-21T03:34:02;48513.38;;;-141.90;63.63
5298;BME280;14738;42.668;23.250;2024-02-21T03:36:28;48499.50;;;-141.90;63.49
5298;BME280;14738;42.668;23.250;2024-02-21T03:38:56;48515.38;;;-141.90;63.63
5298;BME280;14738;42.668;23.250;2024-02-21T03:41:22;48525.31;;;-141.90;63.55
5298;BME280;14738;42.668;23.250;2024-02-21T03:43:47;48527.28;;;-141.90;63.41
5298;BME280;14738;42.668;23.250;2024-02-21T03:46:13;48541.19;;;-141.90;63.58
5298;BME280;14738;42.668;23.250;2024-02-21T03:48:38;48545.16;;;-141.90;64.00
5298;BME280;14738;42.668;23.250;2024-02-21T03:51:04;48525.31;;;-141.90;64.27
5298;BME280;14738;42.668;23.250;2024-02-21T03:53:30;48525.31;;;-141.90;64.12
5298;BME280;14738;42.668;23.250;2024-02-21T03:55:55;48519.34;;;-141.90;64.19
5298;BME280;14738;42.668;23.250;2024-02-21T03:58:21;48499.50;;;-141.90;64.15
5298;BME280;14738;42.668;23.250;2024-02-21T04:00:47;48521.34;;;-141.90;63.98
5298;BME280;14738;42.668;23.250;2024-02-21T04:03:13;48513.38;;;-141.90;64.33
5298;BME280;14738;42.668;23.250;2024-02-21T04:05:38;48543.16;;;-141.90;64.02
5298;BME280;14738;42.668;23.250;2024-02-21T04:08:07;48545.16;;;-141.90;64.39
5298;BME280;14738;42.668;23.250;2024-02-21T04:10:33;48541.19;;;-141.90;64.09
5298;BME280;14738;42.668;23.250;2024-02-21T04:12:58;48505.44;;;-141.90;63.77
5298;BME280;14738;42.668;23.250;2024-02-21T04:15:24;48517.34;;;-141.90;63.47
5298;BME280;14738;42.668;23.250;2024-02-21T04:17:49;48541.19;;;-141.90;63.38
5298;BME280;14738;42.668;23.250;2024-02-21T04:20:16;48543.16;;;-141.90;63.78
5298;BME280;14738;42.668;23.250;2024-02-21T04:22:45;48517.34;;;-141.90;63.91
5298;BME280;14738;42.668;23.250;2024-02-21T04:25:11;48533.25;;;-141.90;64.18
5298;BME280;14738;42.668;23.250;2024-02-21T04:27:38;48525.31;;;-141.90;64.19
5298;BME280;14738;42.668;23.250;2024-02-21T04:30:04;48509.41;;;-141.90;63.86
5298;BME280;14738;42.668;23.250;2024-02-21T04:45:08;48529.28;;;-141.90;65.13
5298;BME280;14738;42.668;23.250;2024-02-21T04:47:33;48521.34;;;-141.90;65.18
5298;BME280;14738;42.668;23.250;2024-02-21T04:50:09;48537.22;;;-141.90;65.44
5298;BME280;14738;42.668;23.250;2024-02-21T04:52:34;48543.16;;;-141.90;65.63
5298;BME280;14738;42.668;23.250;2024-02-21T04:54:59;48547.13;;;-141.90;65.75
5298;BME280;14738;42.668;23.250;2024-02-21T04:57:25;48541.19;;;-141.90;66.02
5298;BME280;14738;42.668;23.250;2024-02-21T04:59:50;48529.28;;;-141.90;65.93
5298;BME280;14738;42.668;23.250;2024-02-21T05:02:16;48549.13;;;-141.90;65.91
5298;BME280;14738;42.668;23.250;2024-02-21T05:04:44;48515.38;;;-141.90;66.18
5298;BME280;14738;42.668;23.250;2024-02-21T05:07:10;48565.00;;;-141.90;66.04
5298;BME280;14738;42.668;23.250;2024-02-21T05:09:37;48561.03;;;-141.90;65.62
5298;BME280;14738;42.668;23.250;2024-02-21T05:12:02;48539.19;;;-141.90;65.50
5298;BME280;14738;42.668;23.250;2024-02-21T05:14:28;48567.00;;;-141.90;64.84
5298;BME280;14738;42.668;23.250;2024-02-21T05:16:53;48531.25;;;-141.90;64.80
5298;BME280;14738;42.668;23.250;2024-02-21T05:19:19;48543.16;;;-141.90;65.08
5298;BME280;14738;42.668;23.250;2024-02-21T05:21:44;48537.22;;;-141.90;65.01
5298;BME280;14738;42.668;23.250;2024-02-21T05:24:10;48513.38;;;-141.90;64.87
5298;BME280;14738;42.668;23.250;2024-02-21T05:26:35;48521.34;;;-141.90;65.04
5298;BME280;14738;42.668;23.250;2024-02-21T05:29:00;48525.31;;;-141.90;64.14
5298;BME280;14738;42.668;23.250;2024-02-21T05:31:26;48521.34;;;-141.90;64.36
5298;BME280;14738;42.668;23.250;2024-02-21T05:34:07;48541.19;;;-141.90;64.05
5298;BME280;14738;42.668;23.250;2024-02-21T05:36:33;48511.41;;;-141.90;63.30
5298;BME280;14738;42.668;23.250;2024-02-21T05:38:59;48535.22;;;-141.90;62.87
5298;BME280;14738;42.668;23.250;2024-02-21T05:41:24;48525.31;;;-141.90;62.87
5298;BME280;14738;42.668;23.250;2024-02-21T05:43:49;48555.09;;;-141.90;62.63
5298;BME280;14738;42.668;23.250;2024-02-21T05:46:19;48527.28;;;-141.90;62.35
5298;BME280;14738;42.668;23.250;2024-02-21T05:48:44;48521.34;;;-141.90;61.99
5298;BME280;14738;42.668;23.250;2024-02-21T05:51:09;48521.34;;;-141.90;61.18
5298;BME280;14738;42.668;23.250;2024-02-21T05:53:35;48497.50;;;-141.90;60.59
5298;BME280;14738;42.668;23.250;2024-02-21T05:56:01;48541.19;;;-141.90;60.98
5298;BME280;14738;42.668;23.250;2024-02-21T05:58:27;48503.47;;;-141.90;60.20
5298;BME280;14738;42.668;23.250;2024-02-21T06:00:54;48509.41;;;-141.90;60.03
5298;BME280;14738;42.668;23.250;2024-02-21T06:03:19;48511.41;;;-141.90;58.86
5298;BME280;14738;42.668;23.250;2024-02-21T06:05:44;48485.59;;;-141.90;58.02
5298;BME280;14738;42.668;23.250;2024-02-21T06:08:10;48509.41;;;-141.90;54.72
5298;BME280;14738;42.668;23.250;2024-02-21T06:10:35;48477.66;;;-141.90;52.40
5298;BME280;14738;42.668;23.250;2024-02-21T06:13:01;48481.63;;;-141.90;51.18
5298;BME280;14738;42.668;23.250;2024-02-21T06:15:26;48487.56;;;-141.90;51.23
5298;BME280;14738;42.668;23.250;2024-02-21T06:17:51;48501.47;;;-141.90;52.21
5298;BME280;14738;42.668;23.250;2024-02-21T06:20:17;48501.47;;;-141.90;52.24
5298;BME280;14738;42.668;23.250;2024-02-21T06:22:42;48485.59;;;-141.90;52.23
5298;BME280;14738;42.668;23.250;2024-02-21T06:25:08;48507.44;;;-141.90;52.65
5298;BME280;14738;42.668;23.250;2024-02-21T06:27:33;48501.47;;;-141.90;53.20
5298;BME280;14738;42.668;23.250;2024-02-21T06:29:58;48501.47;;;-141.90;53.14
5298;BME280;14738;42.668;23.250;2024-02-21T06:32:24;48499.50;;;-141.90;53.44
5298;BME280;14738;42.668;23.250;2024-02-21T06:40:40;48493.53;;;-141.90;52.99
5298;BME280;14738;42.668;23.250;2024-02-21T06:43:06;48489.56;;;-141.90;53.13
5298;BME280;14738;42.668;23.250;2024-02-21T06:45:32;48469.72;;;-141.90;52.18
5298;BME280;14738;42.668;23.250;2024-02-21T06:47:57;48495.53;;;-141.90;51.65
5298;BME280;14738;42.668;23.250;2024-02-21T06:50:22;48495.53;;;-141.90;51.24
5298;BME280;14738;42.668;23.250;2024-02-21T06:52:48;48481.63;;;-141.90;51.97
5298;BME280;14738;42.668;23.250;2024-02-21T06:55:13;48469.72;;;-141.90;51.25
5298;BME280;14738;42.668;23.250;2024-02-21T06:57:39;48465.75;;;-141.90;51.32
5298;BME280;14738;42.668;23.250;2024-02-21T07:00:04;48443.91;;;-141.90;52.07
5298;BME280;14738;42.668;23.250;2024-02-21T07:02:33;48473.69;;;-141.90;52.43
5298;BME280;14738;42.668;23.250;2024-02-21T07:04:59;48471.69;;;-141.90;51.83
5298;BME280;14738;42.668;23.250;2024-02-21T07:07:24;48467.72;;;-141.90;51.77
5298;BME280;14738;42.668;23.250;2024-02-21T07:09:49;48477.66;;;-141.90;51.75
5298;BME280;14738;42.668;23.250;2024-02-21T07:12:15;48481.63;;;-141.90;52.35
5298;BME280;14738;42.668;23.250;2024-02-21T07:14:40;48489.56;;;-141.90;52.38
5298;BME280;14738;42.668;23.250;2024-02-21T07:17:05;48477.66;;;-141.90;51.65
5298;BME280;14738;42.668;23.250;2024-02-21T07:19:31;48495.53;;;-141.90;51.88
5298;BME280;14738;42.668;23.250;2024-02-21T07:21:56;48493.53;;;-141.90;51.08
5298;BME280;14738;42.668;23.250;2024-02-21T07:24:22;48485.59;;;-141.90;49.98
5298;BME280;14738;42.668;23.250;2024-02-21T07:26:48;48477.66;;;-141.90;49.75
5298;BME280;14738;42.668;23.250;2024-02-21T07:29:13;48487.56;;;-141.90;50.72
5298;BME280;14738;42.668;23.250;2024-02-21T07:31:42;48463.75;;;-141.90;48.67
5298;BME280;14738;42.668;23.250;2024-02-21T07:34:08;48453.81;;;-141.90;47.58
5298;BME280;14738;42.668;23.250;2024-02-21T07:36:33;48443.91;;;-141.90;47.51
5298;BME280;14738;42.668;23.250;2024-02-21T07:38:59;48485.59;;;-141.90;47.44
5298;BME280;14738;42.668;23.250;2024-02-21T07:41:27;48457.81;;;-141.90;47.20
5298;BME280;14738;42.668;23.250;2024-02-21T07:43:55;48477.66;;;-141.90;47.96
5298;BME280;14738;42.668;23.250;2024-02-21T07:46:20;48437.94;;;-141.90;46.74
5298;BME280;14738;42.668;23.250;2024-02-21T07:48:46;48445.88;;;-141.90;47.38
5298;BME280;14738;42.668;23.250;2024-02-21T07:51:13;48493.53;;;-141.90;47.07
5298;BME280;14738;42.668;23.250;2024-02-21T07:53:38;48475.66;;;-141.90;46.52
5298;BME280;14738;42.668;23.250;2024-02-21T07:56:09;48477.66;;;-141.90;46.73
5298;BME280;14738;42.668;23.250;2024-02-21T07:58:36;48469.72;;;-141.90;46.40
5298;BME280;14738;42.668;23.250;2024-02-21T08:01:01;48459.78;;;-141.90;45.55
5298;BME280;14738;42.668;23.250;2024-02-21T08:03:26;48449.84;;;-141.90;45.38
5298;BME280;14738;42.668;23.250;2024-02-21T08:05:52;48489.56;;;-141.90;46.03
5298;BME280;14738;42.668;23.250;2024-02-21T08:08:17;48453.81;;;-141.90;45.65
5298;BME280;14738;42.668;23.250;2024-02-21T08:10:45;48471.69;;;-141.90;46.05
5298;BME280;14738;42.668;23.250;2024-02-21T08:13:10;48463.75;;;-141.90;45.99
5298;BME280;14738;42.668;23.250;2024-02-21T08:15:36;48467.72;;;-141.90;45.66
5298;BME280;14738;42.668;23.250;2024-02-21T08:18:04;48473.69;;;-141.90;45.13
5298;BME280;14738;42.668;23.250;2024-02-21T08:20:29;48443.91;;;-141.90;45.44
5298;BME280;14738;42.668;23.250;2024-02-21T08:22:55;48467.72;;;-141.90;42.80
5298;BME280;14738;42.668;23.250;2024-02-21T08:25:20;48453.81;;;-141.90;42.72
5298;BME280;14738;42.668;23.250;2024-02-21T08:27:45;48455.81;;;-141.90;42.80
5298;BME280;14738;42.668;23.250;2024-02-21T08:30:11;48481.63;;;-141.90;43.37
5298;BME280;14738;42.668;23.250;2024-02-21T08:32:37;48473.69;;;-141.90;42.94
5298;BME280;14738;42.668;23.250;2024-02-21T08:35:03;48481.63;;;-141.90;42.80
5298;BME280;14738;42.668;23.250;2024-02-21T08:37:28;48445.88;;;-141.90;42.52
5298;BME280;14738;42.668;23.250;2024-02-21T08:39:54;48465.75;;;-141.90;41.99
5298;BME280;14738;42.668;23.250;2024-02-21T08:42:19;48461.78;;;-141.90;41.88
5298;BME280;14738;42.668;23.250;2024-02-21T08:44:45;48457.81;;;-141.90;42.19
5298;BME280;14738;42.668;23.250;2024-02-21T08:47:10;48469.72;;;-141.90;41.26
5298;BME280;14738;42.668;23.250;2024-02-21T08:49:36;48469.72;;;-141.90;41.82
5298;BME280;14738;42.668;23.250;2024-02-21T08:52:02;48469.72;;;-141.90;42.65
5298;BME280;14738;42.668;23.250;2024-02-21T08:54:28;48457.81;;;-141.90;41.38
5298;BME280;14738;42.668;23.250;2024-02-21T08:56:54;48449.84;;;-141.90;42.71
5298;BME280;14738;42.668;23.250;2024-02-21T08:59:20;48433.97;;;-141.90;42.02
5298;BME280;14738;42.668;23.250;2024-02-21T09:01:46;48443.91;;;-141.90;42.45
5298;BME280;14738;42.668;23.250;2024-02-21T09:04:12;48459.78;;;-141.90;42.67
5298;BME280;14738;42.668;23.250;2024-02-21T09:06:37;48418.09;;;-141.90;43.02
5298;BME280;14738;42.668;23.250;2024-02-21T09:09:07;48437.94;;;-141.90;42.46
5298;BME280;14738;42.668;23.250;2024-02-21T09:11:34;48463.75;;;-141.90;42.45
5298;BME280;14738;42.668;23.250;2024-02-21T09:13:59;48445.88;;;-141.90;42.33
5298;BME280;14738;42.668;23.250;2024-02-21T09:16:24;48465.75;;;-141.90;43.11
5298;BME280;14738;42.668;23.250;2024-02-21T09:18:50;48453.81;;;-141.90;42.27
5298;BME280;14738;42.668;23.250;2024-02-21T09:21:15;48463.75;;;-141.90;42.42
5298;BME280;14738;42.668;23.250;2024-02-21T09:23:40;48461.78;;;-141.90;42.83
5298;BME280;14738;42.668;23.250;2024-02-21T09:26:06;48465.75;;;-141.90;42.34
5298;BME280;14738;42.668;23.250;2024-02-21T09:28:31;48461.78;;;-141.90;42.63
5298;BME280;14738;42.668;23.250;2024-02-21T09:30:58;48455.81;;;-141.90;42.30
5298;BME280;14738;42.668;23.250;2024-02-21T09:33:23;48469.72;;;-141.90;41.63
5298;BME280;14738;42.668;23.250;2024-02-21T09:35:49;48447.88;;;-141.90;42.89
5298;BME280;14738;42.668;23.250;2024-02-21T09:38:15;48414.13;;;-141.90;42.03
5298;BME280;14738;42.668;23.250;2024-02-21T09:40:40;48461.78;;;-141.90;42.53
5298;BME280;14738;42.668;23.250;2024-02-21T09:43:07;48453.81;;;-141.90;43.23
5298;BME280;14738;42.668;23.250;2024-02-21T09:45:34;48467.72;;;-141.90;43.94
5298;BME280;14738;42.668;23.250;2024-02-21T09:50:38;48473.69;;;-141.90;43.90
5298;BME280;14738;42.668;23.250;2024-02-21T09:53:06;48453.81;;;-141.90;43.92
5298;BME280;14738;42.668;23.250;2024-02-21T09:55:33;48461.78;;;-141.90;43.53
5298;BME280;14738;42.668;23.250;2024-02-21T09:58:01;48455.81;;;-141.90;42.75
5298;BME280;14738;42.668;23.250;2024-02-21T10:00:26;48465.75;;;-141.90;42.90
5298;BME280;14738;42.668;23.250;2024-02-21T10:02:53;48447.88;;;-141.90;42.71
5298;BME280;14738;42.668;23.250;2024-02-21T10:05:19;48455.81;;;-141.90;41.00
5298;BME280;14738;42.668;23.250;2024-02-21T10:07:44;48443.91;;;-141.90;40.20
5298;BME280;14738;42.668;23.250;2024-02-21T10:10:10;48449.84;;;-141.90;38.85
5298;BME280;14738;42.668;23.250;2024-02-21T10:12:35;48408.16;;;-141.90;38.54
5298;BME280;14738;42.668;23.250;2024-02-21T10:15:05;48465.75;;;-141.90;39.23
5298;BME280;14738;42.668;23.250;2024-02-21T10:17:32;48479.63;;;-141.90;39.30
5298;BME280;14738;42.668;23.250;2024-02-21T10:20:08;48449.84;;;-141.90;41.18
5298;BME280;14738;42.668;23.250;2024-02-21T10:22:34;48467.72;;;-141.90;39.82
5298;BME280;14738;42.668;23.250;2024-02-21T10:25:11;48467.72;;;-141.90;39.36
5298;BME280;14738;42.668;23.250;2024-02-21T10:27:37;48451.84;;;-141.90;38.83
5298;BME280;14738;42.668;23.250;2024-02-21T10:30:05;48461.78;;;-141.90;38.83
5298;BME280;14738;42.668;23.250;2024-02-21T10:32:32;48481.63;;;-141.90;38.49
5298;BME280;14738;42.668;23.250;2024-02-21T10:35:01;48463.75;;;-141.90;38.92
5298;BME280;14738;42.668;23.250;2024-02-21T10:37:28;48422.06;;;-141.90;38.63
5298;BME280;14738;42.668;23.250;2024-02-21T10:39:54;48443.91;;;-141.90;38.54
5298;BME280;14738;42.668;23.250;2024-02-21T10:42:21;48447.88;;;-141.90;37.81
5298;BME280;14738;42.668;23.250;2024-02-21T10:44:50;48449.84;;;-141.90;37.85
5298;BME280;14738;42.668;23.250;2024-02-21T10:47:17;48443.91;;;-141.90;38.26
5298;BME280;14738;42.668;23.250;2024-02-21T10:49:50;48449.84;;;-141.90;37.80
5298;BME280;14738;42.668;23.250;2024-02-21T10:52:32;48447.88;;;-141.90;37.50
5298;BME280;14738;42.668;23.250;2024-02-21T10:55:04;48467.72;;;-141.90;37.10
5298;BME280;14738;42.668;23.250;2024-02-21T10:57:34;48453.81;;;-141.90;37.04
5298;BME280;14738;42.668;23.250;2024-02-21T11:00:00;48477.66;;;-141.90;37.83
5298;BME280;14738;42.668;23.250;2024-02-21T11:02:28;48469.72;;;-141.90;36.90
5298;BME280;14738;42.668;23.250;2024-02-21T11:04:56;48481.63;;;-141.90;36.94
5298;BME280;14738;42.668;23.250;2024-02-21T11:07:22;48477.66;;;-141.90;37.29
5298;BME280;14738;42.668;23.250;2024-02-21T11:09:52;48457.81;;;-141.90;37.09
5298;BME280;14738;42.668;23.250;2024-02-21T11:12:21;48445.88;;;-141.90;37.80
5298;BME280;14738;42.668;23.250;2024-02-21T11:14:46;48457.81;;;-141.90;37.31
5298;BME280;14738;42.668;23.250;2024-02-21T11:17:16;48439.94;;;-141.90;36.41
5298;BME280;14738;42.668;23.250;2024-02-21T11:19:45;48457.81;;;-141.90;36.33
5298;BME280;14738;42.668;23.250;2024-02-21T11:22:20;48455.81;;;-141.90;35.84
5298;BME280;14738;42.668;23.250;2024-02-21T11:24:50;48424.06;;;-141.90;36.23
5298;BME280;14738;42.668;23.250;2024-02-21T11:27:18;48451.84;;;-141.90;36.83
5298;BME280;14738;42.668;23.250;2024-02-21T11:29:53;48449.84;;;-141.90;37.17
5298;BME280;14738;42.668;23.250;2024-02-21T11:32:20;48479.63;;;-141.90;36.51
5298;BME280;14738;42.668;23.250;2024-02-21T11:34:59;48435.97;;;-141.90;37.03
5298;BME280;14738;42.668;23.250;2024-02-21T11:37:27;48437.94;;;-141.90;37.03
5298;BME280;14738;42.668;23.250;2024-02-21T11:39:54;48469.72;;;-141.90;37.40
5298;BME280;14738;42.668;23.250;2024-02-21T11:42:20;48457.81;;;-141.90;37.23
5298;BME280;14738;42.668;23.250;2024-02-21T11:44:45;48443.91;;;-141.90;36.26
5298;BME280;14738;42.668;23.250;2024-02-21T11:47:11;48461.78;;;-141.90;36.19
5298;BME280;14738;42.668;23.250;2024-02-21T11:49:38;48439.94;;;-141.90;37.46
5298;BME280;14738;42.668;23.250;2024-02-21T11:52:07;48457.81;;;-141.90;37.25
5298;BME280;14738;42.668;23.250;2024-02-21T11:54:33;48481.63;;;-141.90;37.16
5298;BME280;14738;42.668;23.250;2024-02-21T11:57:00;48477.66;;;-141.90;36.89
5298;BME280;14738;42.668;23.250;2024-02-21T11:59:26;48459.78;;;-141.90;36.99
5298;BME280;14738;42.668;23.250;2024-02-21T12:01:52;48443.91;;;-141.90;37.96
5298;BME280;14738;42.668;23.250;2024-02-21T12:04:19;48443.91;;;-141.90;37.50
5298;BME280;14738;42.668;23.250;2024-02-21T12:06:45;48457.81;;;-141.90;37.54
5298;BME280;14738;42.668;23.250;2024-02-21T12:09:15;48461.78;;;-141.90;38.66
5298;BME280;14738;42.668;23.250;2024-02-21T12:11:44;48455.81;;;-141.90;39.36
5298;BME280;14738;42.668;23.250;2024-02-21T12:14:10;48426.03;;;-141.90;39.62
5298;BME280;14738;42.668;23.250;2024-02-21T12:16:36;48439.94;;;-141.90;39.71
5298;BME280;14738;42.668;23.250;2024-02-21T12:19:04;48451.84;;;-141.90;38.66
5298;BME280;14738;42.668;23.250;2024-02-21T12:21:31;48463.75;;;-141.90;38.38
5298;BME280;14738;42.668;23.250;2024-02-21T12:23:58;48461.78;;;-141.90;38.23
5298;BME280;14738;42.668;23.250;2024-02-21T12:26:24;48469.72;;;-141.90;38.88
5298;BME280;14738;42.668;23.250;2024-02-21T12:28:50;48433.97;;;-141.90;38.07
5298;BME280;14738;42.668;23.250;2024-02-21T12:31:16;48433.97;;;-141.90;38.98
5298;BME280;14738;42.668;23.250;2024-02-21T12:33:42;48455.81;;;-141.90;38.88
5298;BME280;14738;42.668;23.250;2024-02-21T12:36:08;48433.97;;;-141.90;38.64
5298;BME280;14738;42.668;23.250;2024-02-21T12:38:36;48433.97;;;-141.90;38.50
5298;BME280;14738;42.668;23.250;2024-02-21T12:41:02;48477.66;;;-141.90;39.30
5298;BME280;14738;42.668;23.250;2024-02-21T12:43:28;48445.88;;;-141.90;39.40
5298;BME280;14738;42.668;23.250;2024-02-21T12:45:54;48451.84;;;-141.90;39.22
5298;BME280;14738;42.668;23.250;2024-02-21T12:48:19;48447.88;;;-141.90;39.55
5298;BME280;14738;42.668;23.250;2024-02-21T12:50:53;48453.81;;;-141.90;39.82
5298;BME280;14738;42.668;23.250;2024-02-21T12:53:19;48449.84;;;-141.90;39.08
5298;BME280;14738;42.668;23.250;2024-02-21T12:55:47;48451.84;;;-141.90;38.86
5298;BME280;14738;42.668;23.250;2024-02-21T12:58:14;48465.75;;;-141.90;39.60
5298;BME280;14738;42.668;23.250;2024-02-21T13:00:40;48447.88;;;-141.90;39.05